sensor_id;sensor_type;location;lat;lon;timestamp;temperature;humidity
18207;DHT22;9229;52.354;20.886;2022-07-23T00:00:15;20.10;99.90
18207;DHT22;9229;52.354;20.886;2022-07-23T00:05:16;20.00;99.90
18207;DHT22;9229;52.354;20.886;2022-07-23T00:10:20;19.90;99.90
18207;DHT22;9229;52.354;20.886;2022-07-23T00:15:21;19.90;99.90
18207;DHT22;9229;52.354;20.886;2022-07-23T00:20:23;19.90;99.90
18207;DHT22;9229;52.354;20.886;2022-07-23T00:25:27;19.80;99.90
18207;DHT22;9229;52.354;20.886;2022-07-23T00:30:29;19.70;99.90
18207;DHT22;9229;52.354;20.886;2022-07-23T00:35:34;19.60;99.90
18207;DHT22;9229;52.354;20.886;2022-07-23T00:40:38;19.60;99.90
18207;DHT22;9229;52.354;20.886;2022-07-23T00:45:40;19.60;99.90
18207;DHT22;9229;52.354;20.886;2022-07-23T00:50:42;19.60;99.90
18207;DHT22;9229;52.354;20.886;2022-07-23T00:55:46;19.50;99.90
18207;DHT22;9229;52.354;20.886;2022-07-23T01:00:48;19.50;99.90
18207;DHT22;9229;52.354;20.886;2022-07-23T01:05:50;19.40;99.90
18207;DHT22;9229;52.354;20.886;2022-07-23T01:10:53;19.30;99.90
18207;DHT22;9229;52.354;20.886;2022-07-23T01:15:55;19.40;99.90
18207;DHT22;9229;52.354;20.886;2022-07-23T01:20:57;19.30;99.90
18207;DHT22;9229;52.354;20.886;2022-07-23T01:26:00;19.20;99.90
18207;DHT22;9229;52.354;20.886;2022-07-23T01:31:03;19.20;99.90
18207;DHT22;9229;52.354;20.886;2022-07-23T01:36:09;19.20;99.90
18207;DHT22;9229;52.354;20.886;2022-07-23T01:41:13;19.10;99.90
18207;DHT22;9229;52.354;20.886;2022-07-23T01:46:15;19.00;99.90
18207;DHT22;9229;52.354;20.886;2022-07-23T01:51:21;19.00;99.90
18207;DHT22;9229;52.354;20.886;2022-07-23T01:56:37;19.00;99.90
18207;DHT22;9229;52.354;20.886;2022-07-23T02:01:39;18.90;99.90
18207;DHT22;9229;52.354;20.886;2022-07-23T02:06:41;18.90;99.90
18207;DHT22;9229;52.354;20.886;2022-07-23T02:11:45;18.90;99.90
18207;DHT22;9229;52.354;20.886;2022-07-23T02:16:47;18.90;99.90
18207;DHT22;9229;52.354;20.886;2022-07-23T02:21:49;18.80;99.90
18207;DHT22;9229;52.354;20.886;2022-07-23T02:26:56;18.80;99.90
18207;DHT22;9229;52.354;20.886;2022-07-23T02:31:58;18.70;99.90
18207;DHT22;9229;52.354;20.886;2022-07-23T02:37:00;18.70;99.90
18207;DHT22;9229;52.354;20.886;2022-07-23T02:42:05;18.60;99.90
18207;DHT22;9229;52.354;20.886;2022-07-23T02:47:09;18.60;99.90
18207;DHT22;9229;52.354;20.886;2022-07-23T02:52:11;18.60;99.90
18207;DHT22;9229;52.354;20.886;2022-07-23T02:57:14;18.50;99.90
18207;DHT22;9229;52.354;20.886;2022-07-23T03:02:16;18.50;99.90
18207;DHT22;9229;52.354;20.886;2022-07-23T03:07:18;18.50;99.90
18207;DHT22;9229;52.354;20.886;2022-07-23T03:12:22;18.50;99.90
18207;DHT22;9229;52.354;20.886;2022-07-23T03:17:24;18.50;99.90
18207;DHT22;9229;52.354;20.886;2022-07-23T03:22:26;18.60;99.90
18207;DHT22;9229;52.354;20.886;2022-07-23T03:27:30;18.60;99.90
18207;DHT22;9229;52.354;20.886;2022-07-23T03:32:32;18.70;99.90
18207;DHT22;9229;52.354;20.886;2022-07-23T03:37:34;18.70;99.90
18207;DHT22;9229;52.354;20.886;2022-07-23T03:42:37;18.70;99.90
18207;DHT22;9229;52.354;20.886;2022-07-23T03:47:41;18.90;99.90
18207;DHT22;9229;52.354;20.886;2022-07-23T03:52:43;19.00;99.90
18207;DHT22;9229;52.354;20.886;2022-07-23T03:57:47;19.10;99.90
18207;DHT22;9229;52.354;20.886;2022-07-23T04:02:49;19.20;99.90
18207;DHT22;9229;52.354;20.886;2022-07-23T04:07:52;19.30;99.90
18207;DHT22;9229;52.354;20.886;2022-07-23T04:12:55;19.50;99.90
18207;DHT22;9229;52.354;20.886;2022-07-23T04:17:57;19.60;99.90
18207;DHT22;9229;52.354;20.886;2022-07-23T04:23:07;19.80;99.90
18207;DHT22;9229;52.354;20.886;2022-07-23T04:28:11;20.00;99.90
18207;DHT22;9229;52.354;20.886;2022-07-23T04:33:13;20.20;99.90
18207;DHT22;9229;52.354;20.886;2022-07-23T04:38:15;20.40;99.90
18207;DHT22;9229;52.354;20.886;2022-07-23T04:43:20;20.50;99.90
18207;DHT22;9229;52.354;20.886;2022-07-23T04:48:24;20.70;99.90
18207;DHT22;9229;52.354;20.886;2022-07-23T04:53:38;20.90;99.90
18207;DHT22;9229;52.354;20.886;2022-07-23T04:58:41;21.10;99.90
18207;DHT22;9229;52.354;20.886;2022-07-23T05:03:45;21.30;99.90
18207;DHT22;9229;52.354;20.886;2022-07-23T05:08:49;21.50;99.90
18207;DHT22;9229;52.354;20.886;2022-07-23T05:13:53;21.80;99.90
18207;DHT22;9229;52.354;20.886;2022-07-23T05:18:55;22.10;99.90
18207;DHT22;9229;52.354;20.886;2022-07-23T05:23:57;22.50;99.90
18207;DHT22;9229;52.354;20.886;2022-07-23T05:29:01;23.00;99.90
18207;DHT22;9229;52.354;20.886;2022-07-23T05:34:03;23.60;99.90
18207;DHT22;9229;52.354;20.886;2022-07-23T05:39:05;24.20;99.90
18207;DHT22;9229;52.354;20.886;2022-07-23T05:44:12;24.80;99.90
18207;DHT22;9229;52.354;20.886;2022-07-23T05:49:17;25.40;99.90
18207;DHT22;9229;52.354;20.886;2022-07-23T05:54:37;25.90;99.90
18207;DHT22;9229;52.354;20.886;2022-07-23T05:59:42;26.50;99.90
18207;DHT22;9229;52.354;20.886;2022-07-23T06:04:43;27.10;99.90
18207;DHT22;9229;52.354;20.886;2022-07-23T06:09:56;27.50;99.90
18207;DHT22;9229;52.354;20.886;2022-07-23T06:14:59;28.00;99.90
18207;DHT22;9229;52.354;20.886;2022-07-23T06:20:01;28.60;99.90
18207;DHT22;9229;52.354;20.886;2022-07-23T06:25:04;29.20;99.90
18207;DHT22;9229;52.354;20.886;2022-07-23T06:30:11;30.00;99.00
18207;DHT22;9229;52.354;20.886;2022-07-23T06:35:13;30.60;94.60
18207;DHT22;9229;52.354;20.886;2022-07-23T06:40:15;30.90;91.50
18207;DHT22;9229;52.354;20.886;2022-07-23T06:45:18;30.80;90.10
18207;DHT22;9229;52.354;20.886;2022-07-23T06:50:21;31.10;89.00
18207;DHT22;9229;52.354;20.886;2022-07-23T06:55:23;31.40;88.10
18207;DHT22;9229;52.354;20.886;2022-07-23T07:00:27;31.70;85.00
18207;DHT22;9229;52.354;20.886;2022-07-23T07:05:28;32.00;82.10
18207;DHT22;9229;52.354;20.886;2022-07-23T07:10:30;32.30;79.80
18207;DHT22;9229;52.354;20.886;2022-07-23T07:15:33;32.70;75.50
18207;DHT22;9229;52.354;20.886;2022-07-23T07:20:35;33.00;74.30
18207;DHT22;9229;52.354;20.886;2022-07-23T07:25:37;33.30;71.80
18207;DHT22;9229;52.354;20.886;2022-07-23T07:30:40;33.20;66.70
18207;DHT22;9229;52.354;20.886;2022-07-23T07:35:42;33.30;66.60
18207;DHT22;9229;52.354;20.886;2022-07-23T07:40:44;33.60;65.00
18207;DHT22;9229;52.354;20.886;2022-07-23T07:45:47;33.90;64.10
18207;DHT22;9229;52.354;20.886;2022-07-23T07:50:49;33.90;64.00
18207;DHT22;9229;52.354;20.886;2022-07-23T07:55:51;34.00;63.00
18207;DHT22;9229;52.354;20.886;2022-07-23T08:00:54;34.80;61.20
18207;DHT22;9229;52.354;20.886;2022-07-23T08:05:55;35.20;59.60
18207;DHT22;9229;52.354;20.886;2022-07-23T08:10:58;35.50;59.10
18207;DHT22;9229;52.354;20.886;2022-07-23T08:16:01;35.70;58.80
18207;DHT22;9229;52.354;20.886;2022-07-23T08:21:03;36.30;56.70
18207;DHT22;9229;52.354;20.886;2022-07-23T08:26:06;36.80;53.80
18207;DHT22;9229;52.354;20.886;2022-07-23T08:31:09;37.20;52.90
18207;DHT22;9229;52.354;20.886;2022-07-23T08:36:12;37.50;51.70
18207;DHT22;9229;52.354;20.886;2022-07-23T08:41:14;37.70;51.50
18207;DHT22;9229;52.354;20.886;2022-07-23T08:46:19;38.20;50.10
18207;DHT22;9229;52.354;20.886;2022-07-23T08:51:21;38.40;49.40
18207;DHT22;9229;52.354;20.886;2022-07-23T08:56:26;38.60;48.40
18207;DHT22;9229;52.354;20.886;2022-07-23T09:01:30;38.40;47.10
18207;DHT22;9229;52.354;20.886;2022-07-23T09:06:32;38.10;45.70
18207;DHT22;9229;52.354;20.886;2022-07-23T09:11:33;38.40;45.90
18207;DHT22;9229;52.354;20.886;2022-07-23T09:16:36;38.40;46.10
18207;DHT22;9229;52.354;20.886;2022-07-23T09:21:39;38.90;46.10
18207;DHT22;9229;52.354;20.886;2022-07-23T09:26:42;39.00;43.70
18207;DHT22;9229;52.354;20.886;2022-07-23T09:31:51;39.40;43.60
18207;DHT22;9229;52.354;20.886;2022-07-23T09:36:55;40.00;42.50
18207;DHT22;9229;52.354;20.886;2022-07-23T09:41:58;40.30;42.20
18207;DHT22;9229;52.354;20.886;2022-07-23T09:47:01;40.20;41.90
18207;DHT22;9229;52.354;20.886;2022-07-23T09:52:03;40.60;41.50
18207;DHT22;9229;52.354;20.886;2022-07-23T09:57:07;41.20;40.60
18207;DHT22;9229;52.354;20.886;2022-07-23T10:02:12;42.00;40.30
18207;DHT22;9229;52.354;20.886;2022-07-23T10:07:39;42.20;40.10
18207;DHT22;9229;52.354;20.886;2022-07-23T10:12:51;42.20;40.00
18207;DHT22;9229;52.354;20.886;2022-07-23T10:18:12;41.80;38.90
18207;DHT22;9229;52.354;20.886;2022-07-23T10:23:18;41.60;39.90
18207;DHT22;9229;52.354;20.886;2022-07-23T10:33:56;42.10;39.10
18207;DHT22;9229;52.354;20.886;2022-07-23T10:39:05;41.90;39.30
18207;DHT22;9229;52.354;20.886;2022-07-23T10:44:10;40.80;40.20
18207;DHT22;9229;52.354;20.886;2022-07-23T10:49:27;41.60;40.00
18207;DHT22;9229;52.354;20.886;2022-07-23T10:54:29;42.60;38.20
18207;DHT22;9229;52.354;20.886;2022-07-23T10:59:31;41.90;38.60
18207;DHT22;9229;52.354;20.886;2022-07-23T11:04:51;42.30;38.60
18207;DHT22;9229;52.354;20.886;2022-07-23T11:09:54;41.90;38.50
18207;DHT22;9229;52.354;20.886;2022-07-23T11:14:59;41.80;38.70
18207;DHT22;9229;52.354;20.886;2022-07-23T11:20:32;42.80;36.40
18207;DHT22;9229;52.354;20.886;2022-07-23T11:25:44;42.20;37.30
18207;DHT22;9229;52.354;20.886;2022-07-23T11:30:58;41.90;37.90
18207;DHT22;9229;52.354;20.886;2022-07-23T11:36:03;41.00;38.20
18207;DHT22;9229;52.354;20.886;2022-07-23T11:41:05;42.00;37.60
18207;DHT22;9229;52.354;20.886;2022-07-23T11:46:09;42.50;37.30
18207;DHT22;9229;52.354;20.886;2022-07-23T11:51:25;42.90;36.80
18207;DHT22;9229;52.354;20.886;2022-07-23T11:56:27;43.40;35.30
18207;DHT22;9229;52.354;20.886;2022-07-23T12:01:28;42.10;35.50
18207;DHT22;9229;52.354;20.886;2022-07-23T12:06:37;41.00;37.20
18207;DHT22;9229;52.354;20.886;2022-07-23T12:11:39;41.00;37.50
18207;DHT22;9229;52.354;20.886;2022-07-23T12:17:06;41.50;37.80
18207;DHT22;9229;52.354;20.886;2022-07-23T12:22:10;42.20;36.50
18207;DHT22;9229;52.354;20.886;2022-07-23T12:27:12;42.50;36.50
18207;DHT22;9229;52.354;20.886;2022-07-23T12:32:18;42.20;36.40
18207;DHT22;9229;52.354;20.886;2022-07-23T12:37:27;41.50;37.00
18207;DHT22;9229;52.354;20.886;2022-07-23T12:42:41;40.10;38.30
18207;DHT22;9229;52.354;20.886;2022-07-23T12:48:00;40.10;39.40
18207;DHT22;9229;52.354;20.886;2022-07-23T12:53:08;41.60;37.50
18207;DHT22;9229;52.354;20.886;2022-07-23T12:58:14;43.10;35.50
18207;DHT22;9229;52.354;20.886;2022-07-23T13:03:22;43.60;34.60
18207;DHT22;9229;52.354;20.886;2022-07-23T13:08:29;43.50;34.40
18207;DHT22;9229;52.354;20.886;2022-07-23T13:13:33;43.90;34.90
18207;DHT22;9229;52.354;20.886;2022-07-23T13:18:36;44.80;33.70
18207;DHT22;9229;52.354;20.886;2022-07-23T13:23:39;43.00;34.80
18207;DHT22;9229;52.354;20.886;2022-07-23T13:28:41;41.20;36.20
18207;DHT22;9229;52.354;20.886;2022-07-23T13:33:43;40.40;37.50
18207;DHT22;9229;52.354;20.886;2022-07-23T13:38:46;40.10;37.20
18207;DHT22;9229;52.354;20.886;2022-07-23T13:43:49;38.90;39.00
18207;DHT22;9229;52.354;20.886;2022-07-23T13:48:51;38.40;39.80
18207;DHT22;9229;52.354;20.886;2022-07-23T13:53:54;38.00;40.80
18207;DHT22;9229;52.354;20.886;2022-07-23T13:58:59;37.10;41.80
18207;DHT22;9229;52.354;20.886;2022-07-23T14:04:01;36.20;44.00
18207;DHT22;9229;52.354;20.886;2022-07-23T14:09:04;35.50;44.80
18207;DHT22;9229;52.354;20.886;2022-07-23T14:14:06;35.00;45.50
18207;DHT22;9229;52.354;20.886;2022-07-23T14:19:10;34.60;46.90
18207;DHT22;9229;52.354;20.886;2022-07-23T14:24:14;34.20;48.30
18207;DHT22;9229;52.354;20.886;2022-07-23T14:29:16;33.70;49.40
18207;DHT22;9229;52.354;20.886;2022-07-23T14:34:18;33.30;49.90
18207;DHT22;9229;52.354;20.886;2022-07-23T14:39:21;32.90;49.90
18207;DHT22;9229;52.354;20.886;2022-07-23T14:44:23;32.10;53.20
18207;DHT22;9229;52.354;20.886;2022-07-23T14:49:25;30.10;60.50
18207;DHT22;9229;52.354;20.886;2022-07-23T14:54:28;27.40;76.80
18207;DHT22;9229;52.354;20.886;2022-07-23T14:59:30;25.30;90.00
18207;DHT22;9229;52.354;20.886;2022-07-23T15:04:32;23.50;99.90
18207;DHT22;9229;52.354;20.886;2022-07-23T15:09:35;22.40;99.90
18207;DHT22;9229;52.354;20.886;2022-07-23T15:14:37;22.00;99.90
18207;DHT22;9229;52.354;20.886;2022-07-23T15:19:39;21.70;99.90
18207;DHT22;9229;52.354;20.886;2022-07-23T15:24:42;21.60;99.90
18207;DHT22;9229;52.354;20.886;2022-07-23T15:29:44;21.50;99.90
18207;DHT22;9229;52.354;20.886;2022-07-23T15:34:46;21.40;99.90
18207;DHT22;9229;52.354;20.886;2022-07-23T15:39:49;21.30;99.90
18207;DHT22;9229;52.354;20.886;2022-07-23T15:44:51;21.30;99.90
18207;DHT22;9229;52.354;20.886;2022-07-23T15:49:53;21.30;99.90
18207;DHT22;9229;52.354;20.886;2022-07-23T15:54:56;21.30;99.90
18207;DHT22;9229;52.354;20.886;2022-07-23T15:59:58;21.30;99.90
18207;DHT22;9229;52.354;20.886;2022-07-23T16:05:00;21.30;99.90
18207;DHT22;9229;52.354;20.886;2022-07-23T16:10:17;21.30;99.90
18207;DHT22;9229;52.354;20.886;2022-07-23T16:15:22;21.20;99.90
18207;DHT22;9229;52.354;20.886;2022-07-23T16:20:27;21.20;99.90
18207;DHT22;9229;52.354;20.886;2022-07-23T16:25:30;21.20;99.90
18207;DHT22;9229;52.354;20.886;2022-07-23T16:30:32;21.20;99.90
18207;DHT22;9229;52.354;20.886;2022-07-23T16:35:37;21.20;99.90
18207;DHT22;9229;52.354;20.886;2022-07-23T16:40:40;21.30;99.90
18207;DHT22;9229;52.354;20.886;2022-07-23T16:45:43;21.30;99.90
18207;DHT22;9229;52.354;20.886;2022-07-23T16:50:45;21.30;99.90
18207;DHT22;9229;52.354;20.886;2022-07-23T16:55:50;21.40;99.90
18207;DHT22;9229;52.354;20.886;2022-07-23T17:00:52;21.50;99.90
18207;DHT22;9229;52.354;20.886;2022-07-23T17:05:55;21.60;99.90
18207;DHT22;9229;52.354;20.886;2022-07-23T17:10:58;21.50;99.90
18207;DHT22;9229;52.354;20.886;2022-07-23T17:16:02;21.30;99.90
18207;DHT22;9229;52.354;20.886;2022-07-23T17:21:07;21.20;99.90
18207;DHT22;9229;52.354;20.886;2022-07-23T17:26:10;21.10;99.90
18207;DHT22;9229;52.354;20.886;2022-07-23T17:31:11;21.20;99.90
18207;DHT22;9229;52.354;20.886;2022-07-23T17:36:13;21.30;99.90
18207;DHT22;9229;52.354;20.886;2022-07-23T17:41:17;21.40;99.90
18207;DHT22;9229;52.354;20.886;2022-07-23T17:46:19;21.60;99.90
18207;DHT22;9229;52.354;20.886;2022-07-23T17:51:21;21.70;99.90
18207;DHT22;9229;52.354;20.886;2022-07-23T17:56:24;21.70;99.90
18207;DHT22;9229;52.354;20.886;2022-07-23T18:01:26;21.50;99.90
18207;DHT22;9229;52.354;20.886;2022-07-23T18:06:29;21.40;99.90
18207;DHT22;9229;52.354;20.886;2022-07-23T18:11:33;21.30;99.90
18207;DHT22;9229;52.354;20.886;2022-07-23T18:16:37;21.20;99.90
18207;DHT22;9229;52.354;20.886;2022-07-23T18:21:39;21.10;99.90
18207;DHT22;9229;52.354;20.886;2022-07-23T18:26:43;21.00;99.90
18207;DHT22;9229;52.354;20.886;2022-07-23T18:31:46;20.90;99.90
18207;DHT22;9229;52.354;20.886;2022-07-23T18:36:50;20.80;99.90
18207;DHT22;9229;52.354;20.886;2022-07-23T18:41:53;20.60;99.90
18207;DHT22;9229;52.354;20.886;2022-07-23T18:46:55;20.60;99.90
18207;DHT22;9229;52.354;20.886;2022-07-23T18:51:58;20.50;99.90
18207;DHT22;9229;52.354;20.886;2022-07-23T18:57:02;20.50;99.90
18207;DHT22;9229;52.354;20.886;2022-07-23T19:02:05;20.40;99.90
18207;DHT22;9229;52.354;20.886;2022-07-23T19:07:08;20.40;99.90
18207;DHT22;9229;52.354;20.886;2022-07-23T19:12:11;20.30;99.90
18207;DHT22;9229;52.354;20.886;2022-07-23T19:17:14;20.30;99.90
18207;DHT22;9229;52.354;20.886;2022-07-23T19:22:17;20.30;99.90
18207;DHT22;9229;52.354;20.886;2022-07-23T19:27:20;20.30;99.90
18207;DHT22;9229;52.354;20.886;2022-07-23T19:32:22;20.20;99.90
18207;DHT22;9229;52.354;20.886;2022-07-23T19:37:25;20.20;99.90
18207;DHT22;9229;52.354;20.886;2022-07-23T19:42:28;20.10;99.90
18207;DHT22;9229;52.354;20.886;2022-07-23T19:47:32;20.10;99.90
18207;DHT22;9229;52.354;20.886;2022-07-23T19:52:34;20.00;99.90
18207;DHT22;9229;52.354;20.886;2022-07-23T19:57:37;20.00;99.90
18207;DHT22;9229;52.354;20.886;2022-07-23T20:02:39;20.00;99.90
18207;DHT22;9229;52.354;20.886;2022-07-23T20:07:42;20.00;99.90
18207;DHT22;9229;52.354;20.886;2022-07-23T20:12:46;20.00;99.90
18207;DHT22;9229;52.354;20.886;2022-07-23T20:17:49;20.00;99.90
18207;DHT22;9229;52.354;20.886;2022-07-23T20:22:52;19.90;99.90
18207;DHT22;9229;52.354;20.886;2022-07-23T20:27:55;19.80;99.90
18207;DHT22;9229;52.354;20.886;2022-07-23T20:33:00;19.90;99.90
18207;DHT22;9229;52.354;20.886;2022-07-23T20:38:04;19.80;99.90
18207;DHT22;9229;52.354;20.886;2022-07-23T20:43:08;19.80;99.90
18207;DHT22;9229;52.354;20.886;2022-07-23T20:48:11;19.80;99.90
18207;DHT22;9229;52.354;20.886;2022-07-23T20:53:13;19.70;99.90
18207;DHT22;9229;52.354;20.886;2022-07-23T20:58:18;19.70;99.90
18207;DHT22;9229;52.354;20.886;2022-07-23T21:03:20;19.70;99.90
18207;DHT22;9229;52.354;20.886;2022-07-23T21:08:22;19.70;99.90
18207;DHT22;9229;52.354;20.886;2022-07-23T21:13:26;19.80;99.90
18207;DHT22;9229;52.354;20.886;2022-07-23T21:18:29;19.70;99.90
18207;DHT22;9229;52.354;20.886;2022-07-23T21:23:31;19.80;99.90
18207;DHT22;9229;52.354;20.886;2022-07-23T21:28:37;19.80;99.90
18207;DHT22;9229;52.354;20.886;2022-07-23T21:33:40;19.80;99.90
18207;DHT22;9229;52.354;20.886;2022-07-23T21:38:43;19.80;99.90
18207;DHT22;9229;52.354;20.886;2022-07-23T21:43:50;19.80;99.90
18207;DHT22;9229;52.354;20.886;2022-07-23T21:48:53;19.90;99.90
18207;DHT22;9229;52.354;20.886;2022-07-23T21:53:56;19.90;99.90
18207;DHT22;9229;52.354;20.886;2022-07-23T21:58:59;19.90;99.90
18207;DHT22;9229;52.354;20.886;2022-07-23T22:04:01;19.90;99.90
18207;DHT22;9229;52.354;20.886;2022-07-23T22:09:06;19.90;99.90
18207;DHT22;9229;52.354;20.886;2022-07-23T22:14:11;19.90;99.90
18207;DHT22;9229;52.354;20.886;2022-07-23T22:19:14;19.90;99.90
18207;DHT22;9229;52.354;20.886;2022-07-23T22:24:17;20.00;99.90
18207;DHT22;9229;52.354;20.886;2022-07-23T22:29:21;19.90;99.90
18207;DHT22;9229;52.354;20.886;2022-07-23T22:34:24;19.90;99.90
18207;DHT22;9229;52.354;20.886;2022-07-23T22:39:27;19.90;99.90
18207;DHT22;9229;52.354;20.886;2022-07-23T22:44:30;20.00;99.90
18207;DHT22;9229;52.354;20.886;2022-07-23T22:49:33;20.00;99.90
18207;DHT22;9229;52.354;20.886;2022-07-23T22:54:36;20.00;99.90
18207;DHT22;9229;52.354;20.886;2022-07-23T22:59:39;20.00;99.90
18207;DHT22;9229;52.354;20.886;2022-07-23T23:04:42;20.00;99.90
18207;DHT22;9229;52.354;20.886;2022-07-23T23:09:45;20.10;99.90
18207;DHT22;9229;52.354;20.886;2022-07-23T23:14:48;20.10;99.90
18207;DHT22;9229;52.354;20.886;2022-07-23T23:19:51;20.10;99.90
18207;DHT22;9229;52.354;20.886;2022-07-23T23:24:53;20.10;99.90
18207;DHT22;9229;52.354;20.886;2022-07-23T23:29:58;20.10;99.90
18207;DHT22;9229;52.354;20.886;2022-07-23T23:35:00;20.10;99.90
18207;DHT22;9229;52.354;20.886;2022-07-23T23:40:02;20.10;99.90
18207;DHT22;9229;52.354;20.886;2022-07-23T23:45:08;20.10;99.90
18207;DHT22;9229;52.354;20.886;2022-07-23T23:50:13;20.10;99.90
18207;DHT22;9229;52.354;20.886;2022-07-23T23:55:15;20.10;99.90
